createdAt,value
2022-12-11T00:10:02.166Z,19.43
2022-12-11T00:25:19.123Z,19.41
2022-12-11T00:40:36.081Z,19.37
2022-12-11T00:55:53.032Z,19.36
2022-12-11T01:11:09.024Z,19.34
2022-12-11T01:26:25.980Z,19.31
2022-12-11T01:41:41.964Z,19.28
2022-12-11T01:56:57.930Z,19.26
2022-12-11T02:12:13.868Z,19.24
2022-12-11T02:27:31.861Z,19.25
2022-12-11T02:42:48.812Z,19.25
2022-12-11T02:58:05.805Z,19.25
2022-12-11T03:13:21.729Z,19.27
2022-12-11T03:28:38.751Z,19.28
2022-12-11T03:43:54.684Z,19.3
2022-12-11T03:59:10.639Z,19.32
2022-12-11T04:14:27.631Z,19.34
2022-12-11T04:29:45.573Z,19.36
2022-12-11T04:45:02.556Z,19.38
2022-12-11T05:00:18.529Z,19.4
2022-12-11T05:15:34.496Z,19.4
2022-12-11T05:30:51.576Z,19.42
2022-12-11T05:46:07.444Z,19.43
2022-12-11T06:01:23.414Z,19.44
2022-12-11T06:16:40.496Z,19.44
2022-12-11T06:31:58.380Z,19.43
2022-12-11T06:47:15.345Z,19.41
2022-12-11T07:02:31.356Z,19.4
2022-12-11T07:17:47.294Z,19.39
2022-12-11T07:33:04.274Z,19.38
2022-12-11T07:48:20.220Z,19.35
2022-12-11T08:03:37.144Z,19.32
2022-12-11T08:18:54.158Z,19.31
2022-12-11T08:34:11.116Z,19.29
2022-12-11T08:49:32.724Z,19.26
2022-12-11T08:50:06.938Z,19.26
2022-12-11T09:04:44.061Z,19.25
2022-12-11T09:20:01.032Z,19.24
2022-12-11T09:35:17.997Z,19.24
2022-12-11T09:50:33.959Z,19.25
2022-12-11T10:05:49.936Z,19.24
2022-12-11T10:21:05.938Z,19.25
2022-12-11T10:36:22.869Z,19.25
2022-12-11T10:51:39.865Z,19.25
2022-12-11T11:06:56.821Z,19.26
2022-12-11T11:22:14.768Z,19.28
2022-12-11T11:37:30.801Z,19.29
2022-12-11T11:52:46.703Z,19.29
2022-12-11T12:08:02.738Z,19.31
2022-12-11T12:23:19.636Z,19.31
2022-12-11T12:38:35.640Z,19.32
2022-12-11T12:53:52.572Z,19.32
2022-12-11T13:09:09.567Z,19.32
2022-12-11T13:24:26.520Z,19.33
2022-12-11T13:39:42.516Z,19.32
2022-12-11T13:54:58.455Z,19.33
2022-12-11T14:10:14.554Z,19.31
2022-12-11T14:25:33.393Z,19.31
2022-12-11T14:40:49.391Z,19.29
2022-12-11T14:56:05.322Z,19.28
2022-12-11T15:11:21.344Z,19.26
2022-12-11T15:26:38.281Z,19.25
2022-12-11T15:41:55.236Z,19.22
2022-12-11T15:57:12.244Z,19.21
2022-12-11T16:12:28.156Z,19.19
2022-12-11T16:27:45.172Z,19.14
2022-12-11T16:43:01.115Z,19.13
2022-12-11T16:58:17.138Z,19.11
2022-12-11T17:13:35.955Z,19.07
2022-12-11T17:28:51.042Z,19.06
2022-12-11T17:44:07.986Z,19.04
2022-12-11T17:59:24.971Z,19.03
2022-12-11T18:14:40.942Z,19.01
2022-12-11T18:29:57.903Z,19.01
2022-12-11T18:45:14.165Z,19.01
2022-12-11T19:00:29.874Z,19.01
2022-12-11T19:15:46.849Z,19.01
2022-12-11T19:31:04.797Z,19.02
2022-12-11T19:46:21.804Z,19.03
2022-12-11T20:01:37.784Z,19.05
2022-12-11T20:17:10.915Z,19.07
2022-12-11T20:32:10.757Z,19.08
2022-12-11T20:47:26.652Z,19.09
2022-12-11T21:02:42.603Z,19.09
2022-12-11T21:17:59.605Z,19.11
2022-12-11T21:33:17.546Z,19.13
2022-12-11T21:48:34.526Z,19.13
2022-12-11T22:03:50.468Z,19.15
2022-12-11T22:19:06.465Z,19.16
2022-12-11T22:34:23.419Z,19.18
2022-12-11T22:49:39.412Z,19.19
2022-12-11T23:04:56.387Z,19.19
2022-12-11T23:20:13.337Z,19.19
2022-12-11T23:35:30.281Z,19.18
2022-12-11T23:50:46.299Z,19.17
